NOO9880 RJFK-RJFU

Flight info

Callsign NOO9880
Flight time 0h 36m
Altitude 12000
Route SASIK KAZSA OLE
Aircraft DH8D/M-SDE2E3FGRY/H

Departure

Time 2026-04-22 03:24
Airport Kagoshima Airport (RJFK)

Arrival

Time 2026-04-22 04:00
Airport Nagasaki Airport (RJFU)
Time Latitude Longitude Altitude Speed Heading
2026-04-22 02:46 31.80021 130.71848 885 ft 0 kts
2026-04-22 02:51 31.80020 130.71848 885 ft 0 kts
2026-04-22 03:11 31.80021 130.71848 885 ft 0 kts
2026-04-22 03:12 31.80034 130.71852 885 ft 4 kts 28°
2026-04-22 03:12 31.80098 130.71880 886 ft 11 kts 331°
2026-04-22 03:12 31.80162 130.71837 888 ft 9 kts 329°
2026-04-22 03:13 31.80180 130.71823 888 ft 0 kts 331°
2026-04-22 03:13 31.80192 130.71815 888 ft 8 kts 331°
2026-04-22 03:14 31.80268 130.71765 888 ft 13 kts 330°
2026-04-22 03:14 31.80338 130.71718 888 ft 7 kts 330°
2026-04-22 03:14 31.80372 130.71695 888 ft 4 kts 329°
2026-04-22 03:14 31.80403 130.71674 888 ft 6 kts 330°
2026-04-22 03:15 31.80468 130.71631 889 ft 11 kts 329°
2026-04-22 03:15 31.80530 130.71587 890 ft 9 kts 329°
2026-04-22 03:15 31.80588 130.71549 891 ft 8 kts 330°
2026-04-22 03:15 31.80642 130.71512 891 ft 13 kts 330°
2026-04-22 03:16 31.80744 130.71443 893 ft 16 kts 331°
2026-04-22 03:16 31.80838 130.71378 894 ft 15 kts 329°
2026-04-22 03:16 31.80938 130.71312 894 ft 16 kts 332°
2026-04-22 03:16 31.81029 130.71251 894 ft 13 kts 330°
2026-04-22 03:17 31.81108 130.71197 895 ft 12 kts 329°
2026-04-22 03:17 31.81177 130.71150 895 ft 10 kts 330°
2026-04-22 03:17 31.81237 130.71109 896 ft 9 kts 330°
2026-04-22 03:17 31.81294 130.71071 896 ft 10 kts 330°
2026-04-22 03:18 31.81375 130.71016 897 ft 13 kts 330°
2026-04-22 03:18 31.81454 130.71013 896 ft 12 kts 38°
2026-04-22 03:18 31.81475 130.71051 894 ft 0 kts 63°
2026-04-22 03:19 31.81483 130.71068 893 ft 6 kts 68°
2026-04-22 03:19 31.81477 130.71141 890 ft 9 kts 103°
2026-04-22 03:20 31.81461 130.71181 889 ft 3 kts 149°
2026-04-22 03:20 31.81459 130.71182 889 ft 0 kts 150°
2026-04-22 03:23 31.81396 130.71223 887 ft 45 kts 150°
2026-04-22 03:24 31.80850 130.71596 888 ft 128 kts 150°
2026-04-22 03:24 31.79931 130.72197 1027 ft 162 kts 152°
2026-04-22 03:24 31.78902 130.72804 1609 ft 170 kts 152°
2026-04-22 03:24 31.77811 130.73386 2211 ft 177 kts 155°
2026-04-22 03:25 31.76684 130.73917 2874 ft 176 kts 156°
2026-04-22 03:25 31.75496 130.74206 3411 ft 183 kts 184°
2026-04-22 03:25 31.74387 130.73505 3916 ft 191 kts 231°
2026-04-22 03:25 31.74004 130.72031 4512 ft 195 kts 272°
2026-04-22 03:26 31.74571 130.70624 5069 ft 198 kts 315°
2026-04-22 03:26 31.75687 130.69682 5581 ft 208 kts 325°
2026-04-22 03:26 31.76947 130.68733 6077 ft 213 kts 324°
2026-04-22 03:26 31.78179 130.67776 6622 ft 218 kts 321°
2026-04-22 03:27 31.79407 130.66705 7197 ft 219 kts 319°
2026-04-22 03:27 31.80599 130.65613 7763 ft 219 kts 317°
2026-04-22 03:27 31.81792 130.64491 8289 ft 221 kts 316°
2026-04-22 03:27 31.82978 130.63354 8808 ft 222 kts 316°
2026-04-22 03:28 31.84211 130.62230 9325 ft 226 kts 325°
2026-04-22 03:28 31.85753 130.61775 9800 ft 235 kts 354°
2026-04-22 03:28 31.87419 130.61749 10244 ft 240 kts 355°
2026-04-22 03:28 31.89086 130.61734 10761 ft 240 kts 355°
2026-04-22 03:29 31.90741 130.61717 11236 ft 241 kts 354°
2026-04-22 03:29 31.92446 130.61693 11661 ft 244 kts 354°
2026-04-22 03:29 31.94178 130.61661 11863 ft 259 kts 354°
2026-04-22 03:29 31.96042 130.61621 11937 ft 276 kts 354°
2026-04-22 03:30 31.98019 130.61577 11978 ft 290 kts 354°
2026-04-22 03:30 32.00091 130.61531 11988 ft 303 kts 354°
2026-04-22 03:30 32.02228 130.61485 11995 ft 313 kts 354°
2026-04-22 03:30 32.04459 130.61440 11991 ft 322 kts 355°
2026-04-22 03:31 32.06729 130.61372 11982 ft 327 kts 353°
2026-04-22 03:31 32.08921 130.60823 11994 ft 325 kts 337°
2026-04-22 03:31 32.11092 130.59935 11983 ft 329 kts 336°
2026-04-22 03:31 32.13225 130.59053 11964 ft 325 kts 336°
2026-04-22 03:32 32.15345 130.58173 11962 ft 321 kts 336°
2026-04-22 03:32 32.17458 130.57298 11962 ft 318 kts 336°
2026-04-22 03:32 32.19523 130.56445 11965 ft 315 kts 336°
2026-04-22 03:32 32.21594 130.55592 11962 ft 313 kts 336°
2026-04-22 03:33 32.23637 130.54750 11964 ft 312 kts 336°
2026-04-22 03:33 32.25712 130.53894 11971 ft 312 kts 335°
2026-04-22 03:33 32.27761 130.53050 11976 ft 313 kts 336°
2026-04-22 03:33 32.29797 130.52136 11956 ft 310 kts 328°
2026-04-22 03:34 32.31517 130.50699 11982 ft 302 kts 315°
2026-04-22 03:34 32.33118 130.49104 11990 ft 302 kts 314°
2026-04-22 03:34 32.34726 130.47496 11989 ft 303 kts 315°
2026-04-22 03:34 32.36351 130.45868 11971 ft 304 kts 314°
2026-04-22 03:35 32.37969 130.44252 11963 ft 304 kts 315°
2026-04-22 03:35 32.39580 130.42645 11966 ft 304 kts 315°
2026-04-22 03:35 32.41216 130.41013 11973 ft 304 kts 315°
2026-04-22 03:35 32.42838 130.39397 11971 ft 305 kts 315°
2026-04-22 03:36 32.44460 130.37781 11970 ft 305 kts 315°
2026-04-22 03:36 32.46084 130.36165 11965 ft 305 kts 315°
2026-04-22 03:36 32.47709 130.34546 11974 ft 306 kts 314°
2026-04-22 03:36 32.49333 130.32927 11973 ft 306 kts 314°
2026-04-22 03:37 32.50978 130.31288 11970 ft 306 kts 314°
2026-04-22 03:37 32.52604 130.29668 11985 ft 306 kts 314°
2026-04-22 03:37 32.54236 130.28041 11974 ft 307 kts 313°
2026-04-22 03:37 32.55872 130.26408 11972 ft 307 kts 314°
2026-04-22 03:38 32.57501 130.24783 12003 ft 304 kts 314°
2026-04-22 03:38 32.59078 130.23212 11719 ft 298 kts 314°
2026-04-22 03:38 32.60673 130.21623 11377 ft 296 kts 314°
2026-04-22 03:38 32.62253 130.20052 11003 ft 295 kts 314°
2026-04-22 03:39 32.63829 130.18486 10620 ft 295 kts 315°
2026-04-22 03:39 32.65394 130.16925 10288 ft 293 kts 315°
2026-04-22 03:39 32.66955 130.15372 9860 ft 295 kts 315°
2026-04-22 03:39 32.68520 130.13808 9523 ft 292 kts 315°
2026-04-22 03:40 32.70083 130.12248 9092 ft 292 kts 315°
2026-04-22 03:40 32.71595 130.10744 8923 ft 282 kts 315°
2026-04-22 03:40 32.73088 130.09253 8577 ft 279 kts 315°
2026-04-22 03:40 32.74579 130.07764 8213 ft 278 kts 316°
2026-04-22 03:41 32.76041 130.06305 8039 ft 268 kts 316°
2026-04-22 03:41 32.77429 130.04921 8003 ft 259 kts 316°
2026-04-22 03:41 32.78805 130.03549 7990 ft 258 kts 315°
2026-04-22 03:41 32.80172 130.02185 7977 ft 255 kts 316°
2026-04-22 03:42 32.81529 130.00829 7984 ft 253 kts 315°
2026-04-22 03:42 32.82880 129.99477 7982 ft 252 kts 315°
2026-04-22 03:42 32.84240 129.98117 7865 ft 257 kts 316°
2026-04-22 03:42 32.85611 129.96741 7595 ft 260 kts 316°
2026-04-22 03:43 32.86986 129.95361 7308 ft 261 kts 316°
2026-04-22 03:43 32.88383 129.93961 7017 ft 262 kts 316°
2026-04-22 03:43 32.89778 129.92561 6726 ft 262 kts 316°
2026-04-22 03:43 32.91179 129.91144 6430 ft 262 kts 315°
2026-04-22 03:44 32.92333 129.89523 6135 ft 251 kts 301°
2026-04-22 03:44 32.93201 129.87819 6014 ft 232 kts 296°
2026-04-22 03:44 32.93962 129.86218 5968 ft 210 kts 295°
2026-04-22 03:44 32.94640 129.84778 5970 ft 197 kts 296°
2026-04-22 03:45 32.95319 129.83344 5981 ft 198 kts 295°
2026-04-22 03:45 32.96004 129.81895 5987 ft 204 kts 295°
2026-04-22 03:45 32.96714 129.80383 5838 ft 213 kts 296°
2026-04-22 03:45 32.97447 129.78821 5616 ft 222 kts 296°
2026-04-22 03:46 32.98225 129.77188 5395 ft 232 kts 300°
2026-04-22 03:46 32.99398 129.75836 5141 ft 243 kts 330°
2026-04-22 03:46 33.01051 129.75372 4896 ft 249 kts
2026-04-22 03:46 33.02706 129.75961 4647 ft 249 kts 33°
2026-04-22 03:47 33.03852 129.77403 4393 ft 233 kts 65°
2026-04-22 03:47 33.04132 129.79231 4149 ft 223 kts 103°
2026-04-22 03:47 33.03436 129.80751 4060 ft 206 kts 134°
2026-04-22 03:47 33.02441 129.81932 4005 ft 196 kts 138°
2026-04-22 03:48 33.01438 129.82993 3992 ft 187 kts 141°
2026-04-22 03:48 33.00458 129.83946 3984 ft 178 kts 143°
2026-04-22 03:48 32.99498 129.84830 3597 ft 177 kts 143°
2026-04-22 03:48 32.98491 129.85702 3109 ft 181 kts 145°
2026-04-22 03:49 32.97455 129.86548 2898 ft 179 kts 146°
2026-04-22 03:49 32.96431 129.87354 2725 ft 175 kts 146°
2026-04-22 03:49 32.95380 129.88158 2665 ft 185 kts 147°
2026-04-22 03:49 32.94279 129.88983 2631 ft 184 kts 147°
2026-04-22 03:50 32.93196 129.89783 2606 ft 182 kts 147°
2026-04-22 03:50 32.92126 129.90564 2595 ft 179 kts 147°
2026-04-22 03:50 32.91082 129.91345 2592 ft 176 kts 146°
2026-04-22 03:50 32.90027 129.92099 2593 ft 180 kts 151°
2026-04-22 03:51 32.88897 129.92787 2596 ft 184 kts 152°
2026-04-22 03:51 32.87721 129.93492 2597 ft 189 kts 152°
2026-04-22 03:51 32.86544 129.94197 2600 ft 193 kts 152°
2026-04-22 03:51 32.85326 129.94928 2598 ft 197 kts 153°
2026-04-22 03:52 32.84080 129.95674 2594 ft 202 kts 152°
2026-04-22 03:52 32.82809 129.96439 2588 ft 203 kts 152°
2026-04-22 03:52 32.81559 129.97191 2583 ft 203 kts 152°
2026-04-22 03:52 32.80300 129.97951 2577 ft 202 kts 152°
2026-04-22 03:53 32.79033 129.98715 2573 ft 202 kts 152°
2026-04-22 03:53 32.77790 129.99466 2576 ft 201 kts 152°
2026-04-22 03:53 32.76539 130.00220 2580 ft 201 kts 152°
2026-04-22 03:53 32.75285 130.00977 2585 ft 201 kts 152°
2026-04-22 03:54 32.74021 130.01737 2581 ft 202 kts 152°
2026-04-22 03:54 32.72861 130.02653 2569 ft 200 kts 133°
2026-04-22 03:54 32.72224 130.04073 2577 ft 197 kts 103°
2026-04-22 03:54 32.72281 130.05676 2576 ft 197 kts 74°
2026-04-22 03:55 32.72998 130.07053 2578 ft 199 kts 46°
2026-04-22 03:55 32.74190 130.07872 2578 ft 201 kts 18°
2026-04-22 03:55 32.75569 130.07936 2571 ft 202 kts 346°
2026-04-22 03:55 32.76768 130.07088 2588 ft 200 kts 321°
2026-04-22 03:56 32.77839 130.06036 2589 ft 200 kts 321°
2026-04-22 03:56 32.78898 130.04968 2585 ft 195 kts 319°
2026-04-22 03:56 32.79868 130.03938 2575 ft 179 kts 319°
2026-04-22 03:56 32.80812 130.02951 2590 ft 182 kts 319°
2026-04-22 03:57 32.81744 130.01959 2375 ft 174 kts 319°
2026-04-22 03:57 32.82598 130.01031 2218 ft 158 kts 319°
2026-04-22 03:57 32.83396 130.00179 1942 ft 151 kts 320°
2026-04-22 03:57 32.84163 129.99365 1695 ft 143 kts 321°
2026-04-22 03:58 32.84906 129.98596 1538 ft 142 kts 321°
2026-04-22 03:58 32.85651 129.97816 1362 ft 143 kts 320°
2026-04-22 03:58 32.86402 129.97015 1178 ft 144 kts 320°
2026-04-22 03:58 32.87151 129.96214 991 ft 146 kts 319°
2026-04-22 03:59 32.87890 129.95415 774 ft 144 kts 319°
2026-04-22 03:59 32.88618 129.94618 575 ft 138 kts 319°
2026-04-22 03:59 32.89322 129.93855 405 ft 137 kts 319°
2026-04-22 03:59 32.90019 129.93108 269 ft 137 kts 320°
2026-04-22 04:00 32.90755 129.92355 72 ft 134 kts 318°
2026-04-22 04:00 32.91356 129.91710 16 ft 84 kts 317°
2026-04-22 04:00 32.91700 129.91345 14 ft 55 kts 318°
2026-04-22 04:00 32.91910 129.91122 16 ft 23 kts 323°
2026-04-22 04:01 32.92012 129.91161 16 ft 14 kts 50°
2026-04-22 04:01 32.92045 129.91234 16 ft 8 kts 99°
2026-04-22 04:01 32.92012 129.91281 16 ft 7 kts 137°
2026-04-22 04:01 32.91969 129.91328 16 ft 11 kts 137°
2026-04-22 04:02 32.91896 129.91406 16 ft 16 kts 138°
2026-04-22 04:02 32.91798 129.91511 16 ft 20 kts 140°
2026-04-22 04:02 32.91682 129.91635 16 ft 24 kts 138°
2026-04-22 04:02 32.91553 129.91774 16 ft 23 kts 138°
2026-04-22 04:03 32.91465 129.91866 16 ft 13 kts 138°
2026-04-22 04:03 32.91430 129.91928 16 ft 6 kts 47°
2026-04-22 04:03 32.91453 129.91951 16 ft 1 kts 45°
2026-04-22 04:03 32.91467 129.91969 16 ft 5 kts 47°
2026-04-22 04:04 32.91486 129.91994 16 ft 3 kts 47°
2026-04-22 04:04 32.91502 129.92013 16 ft 2 kts 47°
2026-04-22 04:04 32.91505 129.92018 16 ft 0 kts 48°